sensor_id;sensor_type;location;lat;lon;timestamp;temperature;humidity
20714;DHT22;10518;50.742;4.226;2023-05-27T00:01:22;13.30;99.90
20714;DHT22;10518;50.742;4.226;2023-05-27T00:03:49;13.20;99.90
20714;DHT22;10518;50.742;4.226;2023-05-27T00:06:14;13.40;99.90
20714;DHT22;10518;50.742;4.226;2023-05-27T00:08:40;13.40;99.90
20714;DHT22;10518;50.742;4.226;2023-05-27T00:11:06;13.20;99.90
20714;DHT22;10518;50.742;4.226;2023-05-27T00:13:31;13.10;99.90
20714;DHT22;10518;50.742;4.226;2023-05-27T00:15:57;13.10;99.90
20714;DHT22;10518;50.742;4.226;2023-05-27T00:18:22;13.10;99.90
20714;DHT22;10518;50.742;4.226;2023-05-27T00:20:48;13.00;99.90
20714;DHT22;10518;50.742;4.226;2023-05-27T00:23:14;12.80;99.90
20714;DHT22;10518;50.742;4.226;2023-05-27T00:25:40;12.80;99.90
20714;DHT22;10518;50.742;4.226;2023-05-27T00:28:06;12.80;99.90
20714;DHT22;10518;50.742;4.226;2023-05-27T00:30:31;12.80;99.90
20714;DHT22;10518;50.742;4.226;2023-05-27T00:32:57;12.70;99.90
20714;DHT22;10518;50.742;4.226;2023-05-27T00:35:23;12.70;99.90
20714;DHT22;10518;50.742;4.226;2023-05-27T00:37:48;12.80;99.90
20714;DHT22;10518;50.742;4.226;2023-05-27T00:40:15;12.90;99.90
20714;DHT22;10518;50.742;4.226;2023-05-27T00:42:43;12.90;99.90
20714;DHT22;10518;50.742;4.226;2023-05-27T00:45:10;12.70;99.90
20714;DHT22;10518;50.742;4.226;2023-05-27T00:47:35;12.70;99.90
20714;DHT22;10518;50.742;4.226;2023-05-27T00:50:03;12.90;99.90
20714;DHT22;10518;50.742;4.226;2023-05-27T00:52:29;12.80;99.90
20714;DHT22;10518;50.742;4.226;2023-05-27T00:54:55;12.70;99.90
20714;DHT22;10518;50.742;4.226;2023-05-27T00:57:22;12.60;99.90
20714;DHT22;10518;50.742;4.226;2023-05-27T00:59:47;12.60;99.90
20714;DHT22;10518;50.742;4.226;2023-05-27T01:02:13;12.50;99.90
20714;DHT22;10518;50.742;4.226;2023-05-27T01:04:40;12.60;99.90
20714;DHT22;10518;50.742;4.226;2023-05-27T01:09:57;12.40;99.90
20714;DHT22;10518;50.742;4.226;2023-05-27T01:15:08;12.30;99.90
20714;DHT22;10518;50.742;4.226;2023-05-27T01:17:35;12.30;99.90
20714;DHT22;10518;50.742;4.226;2023-05-27T01:20:03;12.30;99.90
20714;DHT22;10518;50.742;4.226;2023-05-27T01:22:31;12.30;99.90
20714;DHT22;10518;50.742;4.226;2023-05-27T01:24:57;12.30;99.90
20714;DHT22;10518;50.742;4.226;2023-05-27T01:27:23;12.10;99.90
20714;DHT22;10518;50.742;4.226;2023-05-27T01:29:52;12.10;99.90
20714;DHT22;10518;50.742;4.226;2023-05-27T01:32:27;12.40;99.90
20714;DHT22;10518;50.742;4.226;2023-05-27T01:35:01;12.30;99.90
20714;DHT22;10518;50.742;4.226;2023-05-27T01:37:33;12.10;99.90
20714;DHT22;10518;50.742;4.226;2023-05-27T01:40:01;12.00;99.90
20714;DHT22;10518;50.742;4.226;2023-05-27T01:42:32;11.90;99.90
20714;DHT22;10518;50.742;4.226;2023-05-27T01:44:59;11.80;99.90
20714;DHT22;10518;50.742;4.226;2023-05-27T01:47:26;11.70;99.90
20714;DHT22;10518;50.742;4.226;2023-05-27T01:49:52;11.70;99.90
20714;DHT22;10518;50.742;4.226;2023-05-27T01:52:18;11.70;99.90
20714;DHT22;10518;50.742;4.226;2023-05-27T01:54:43;11.60;99.90
20714;DHT22;10518;50.742;4.226;2023-05-27T01:57:09;11.60;99.90
20714;DHT22;10518;50.742;4.226;2023-05-27T01:59:34;11.60;99.90
20714;DHT22;10518;50.742;4.226;2023-05-27T02:02:00;11.60;99.90
20714;DHT22;10518;50.742;4.226;2023-05-27T02:04:26;11.60;99.90
20714;DHT22;10518;50.742;4.226;2023-05-27T02:06:51;11.50;99.90
20714;DHT22;10518;50.742;4.226;2023-05-27T02:09:17;11.50;99.90
20714;DHT22;10518;50.742;4.226;2023-05-27T02:11:43;11.50;99.90
20714;DHT22;10518;50.742;4.226;2023-05-27T02:14:08;11.40;99.90
20714;DHT22;10518;50.742;4.226;2023-05-27T02:16:34;11.30;99.90
20714;DHT22;10518;50.742;4.226;2023-05-27T02:19:03;11.20;99.90
20714;DHT22;10518;50.742;4.226;2023-05-27T02:21:30;11.30;99.90
20714;DHT22;10518;50.742;4.226;2023-05-27T02:23:55;11.20;99.90
20714;DHT22;10518;50.742;4.226;2023-05-27T02:26:21;11.40;99.90
20714;DHT22;10518;50.742;4.226;2023-05-27T02:28:47;11.40;99.90
20714;DHT22;10518;50.742;4.226;2023-05-27T02:31:13;11.20;99.90
20714;DHT22;10518;50.742;4.226;2023-05-27T02:33:38;11.20;99.90
20714;DHT22;10518;50.742;4.226;2023-05-27T02:36:04;11.30;99.90
20714;DHT22;10518;50.742;4.226;2023-05-27T02:38:31;11.20;99.90
20714;DHT22;10518;50.742;4.226;2023-05-27T02:40:56;11.10;99.90
20714;DHT22;10518;50.742;4.226;2023-05-27T02:43:22;11.00;99.90
20714;DHT22;10518;50.742;4.226;2023-05-27T02:45:48;10.90;99.90
20714;DHT22;10518;50.742;4.226;2023-05-27T02:48:13;10.90;99.90
20714;DHT22;10518;50.742;4.226;2023-05-27T02:50:39;10.90;99.90
20714;DHT22;10518;50.742;4.226;2023-05-27T02:53:04;10.90;99.90
20714;DHT22;10518;50.742;4.226;2023-05-27T02:55:30;10.90;99.90
20714;DHT22;10518;50.742;4.226;2023-05-27T02:57:55;10.90;99.90
20714;DHT22;10518;50.742;4.226;2023-05-27T03:00:21;10.80;99.90
20714;DHT22;10518;50.742;4.226;2023-05-27T03:02:47;10.90;99.90
20714;DHT22;10518;50.742;4.226;2023-05-27T03:05:13;10.90;99.90
20714;DHT22;10518;50.742;4.226;2023-05-27T03:07:38;10.80;99.90
20714;DHT22;10518;50.742;4.226;2023-05-27T03:10:07;10.70;99.90
20714;DHT22;10518;50.742;4.226;2023-05-27T03:12:33;10.90;99.90
20714;DHT22;10518;50.742;4.226;2023-05-27T03:14:59;10.80;99.90
20714;DHT22;10518;50.742;4.226;2023-05-27T03:17:25;10.80;99.90
20714;DHT22;10518;50.742;4.226;2023-05-27T03:19:50;10.70;99.90
20714;DHT22;10518;50.742;4.226;2023-05-27T03:22:16;10.70;99.90
20714;DHT22;10518;50.742;4.226;2023-05-27T03:24:42;10.70;99.90
20714;DHT22;10518;50.742;4.226;2023-05-27T03:27:08;10.70;99.90
20714;DHT22;10518;50.742;4.226;2023-05-27T03:29:33;10.60;99.90
20714;DHT22;10518;50.742;4.226;2023-05-27T03:31:59;10.50;99.90
20714;DHT22;10518;50.742;4.226;2023-05-27T03:34:25;10.50;99.90
20714;DHT22;10518;50.742;4.226;2023-05-27T03:36:50;10.50;99.90
20714;DHT22;10518;50.742;4.226;2023-05-27T03:39:16;10.60;99.90
20714;DHT22;10518;50.742;4.226;2023-05-27T03:41:43;10.50;99.90
20714;DHT22;10518;50.742;4.226;2023-05-27T03:44:09;10.40;99.90
20714;DHT22;10518;50.742;4.226;2023-05-27T03:46:35;10.30;99.90
20714;DHT22;10518;50.742;4.226;2023-05-27T03:49:01;10.30;99.90
20714;DHT22;10518;50.742;4.226;2023-05-27T03:51:27;10.40;99.90
20714;DHT22;10518;50.742;4.226;2023-05-27T03:53:53;10.30;99.90
20714;DHT22;10518;50.742;4.226;2023-05-27T03:56:18;10.30;99.90
20714;DHT22;10518;50.742;4.226;2023-05-27T03:58:44;10.20;99.90
20714;DHT22;10518;50.742;4.226;2023-05-27T04:01:10;10.20;99.90
20714;DHT22;10518;50.742;4.226;2023-05-27T04:03:37;10.20;99.90
20714;DHT22;10518;50.742;4.226;2023-05-27T04:06:03;10.20;99.90
20714;DHT22;10518;50.742;4.226;2023-05-27T04:08:28;10.20;99.90
20714;DHT22;10518;50.742;4.226;2023-05-27T04:10:57;10.30;99.90
20714;DHT22;10518;50.742;4.226;2023-05-27T04:13:23;10.30;99.90
20714;DHT22;10518;50.742;4.226;2023-05-27T04:15:48;10.40;99.90
20714;DHT22;10518;50.742;4.226;2023-05-27T04:18:14;10.30;99.90
20714;DHT22;10518;50.742;4.226;2023-05-27T04:20:42;10.30;99.90
20714;DHT22;10518;50.742;4.226;2023-05-27T04:23:10;10.30;99.90
20714;DHT22;10518;50.742;4.226;2023-05-27T04:25:36;10.30;99.90
20714;DHT22;10518;50.742;4.226;2023-05-27T04:28:02;10.40;99.90
20714;DHT22;10518;50.742;4.226;2023-05-27T04:30:32;10.40;99.90
20714;DHT22;10518;50.742;4.226;2023-05-27T04:32:58;10.40;99.90
20714;DHT22;10518;50.742;4.226;2023-05-27T04:35:25;10.50;99.90
20714;DHT22;10518;50.742;4.226;2023-05-27T04:37:51;10.60;99.90
20714;DHT22;10518;50.742;4.226;2023-05-27T04:40:16;10.60;99.90
20714;DHT22;10518;50.742;4.226;2023-05-27T04:42:42;10.80;99.90
20714;DHT22;10518;50.742;4.226;2023-05-27T04:45:09;10.80;99.90
20714;DHT22;10518;50.742;4.226;2023-05-27T04:47:38;10.60;99.90
20714;DHT22;10518;50.742;4.226;2023-05-27T04:50:07;10.60;99.90
20714;DHT22;10518;50.742;4.226;2023-05-27T04:52:33;10.60;99.90
20714;DHT22;10518;50.742;4.226;2023-05-27T04:55:05;10.80;99.90
20714;DHT22;10518;50.742;4.226;2023-05-27T04:57:32;10.70;99.90
20714;DHT22;10518;50.742;4.226;2023-05-27T04:59:58;10.60;99.90
20714;DHT22;10518;50.742;4.226;2023-05-27T05:02:43;10.60;99.90
20714;DHT22;10518;50.742;4.226;2023-05-27T05:05:11;10.70;99.90
20714;DHT22;10518;50.742;4.226;2023-05-27T05:07:38;10.80;99.90
20714;DHT22;10518;50.742;4.226;2023-05-27T05:10:10;11.00;99.90
20714;DHT22;10518;50.742;4.226;2023-05-27T05:12:36;11.20;99.90
20714;DHT22;10518;50.742;4.226;2023-05-27T05:15:05;11.50;99.90
20714;DHT22;10518;50.742;4.226;2023-05-27T05:17:31;11.70;99.90
20714;DHT22;10518;50.742;4.226;2023-05-27T05:19:56;12.00;99.90
20714;DHT22;10518;50.742;4.226;2023-05-27T05:22:22;12.10;99.90
20714;DHT22;10518;50.742;4.226;2023-05-27T05:24:51;12.10;99.90
20714;DHT22;10518;50.742;4.226;2023-05-27T05:27:17;12.60;99.90
20714;DHT22;10518;50.742;4.226;2023-05-27T05:29:42;12.70;99.90
20714;DHT22;10518;50.742;4.226;2023-05-27T05:32:09;12.90;99.90
20714;DHT22;10518;50.742;4.226;2023-05-27T05:34:37;13.40;99.90
20714;DHT22;10518;50.742;4.226;2023-05-27T05:37:03;13.90;99.90
20714;DHT22;10518;50.742;4.226;2023-05-27T05:39:28;14.60;99.90
20714;DHT22;10518;50.742;4.226;2023-05-27T05:41:54;14.90;99.90
20714;DHT22;10518;50.742;4.226;2023-05-27T05:44:21;15.10;99.90
20714;DHT22;10518;50.742;4.226;2023-05-27T05:46:48;14.90;99.90
20714;DHT22;10518;50.742;4.226;2023-05-27T05:49:13;15.20;99.90
20714;DHT22;10518;50.742;4.226;2023-05-27T05:51:39;15.60;99.90
20714;DHT22;10518;50.742;4.226;2023-05-27T05:54:05;16.10;99.90
20714;DHT22;10518;50.742;4.226;2023-05-27T05:56:32;16.80;99.90
20714;DHT22;10518;50.742;4.226;2023-05-27T05:58:58;16.80;99.90
20714;DHT22;10518;50.742;4.226;2023-05-27T06:01:24;17.30;99.90
20714;DHT22;10518;50.742;4.226;2023-05-27T06:03:52;16.80;99.90
20714;DHT22;10518;50.742;4.226;2023-05-27T06:06:18;17.00;99.90
20714;DHT22;10518;50.742;4.226;2023-05-27T06:08:43;17.30;99.90
20714;DHT22;10518;50.742;4.226;2023-05-27T06:11:09;17.90;99.90
20714;DHT22;10518;50.742;4.226;2023-05-27T06:13:35;17.60;99.90
20714;DHT22;10518;50.742;4.226;2023-05-27T06:16:01;18.00;99.90
20714;DHT22;10518;50.742;4.226;2023-05-27T06:18:27;17.70;99.90
20714;DHT22;10518;50.742;4.226;2023-05-27T06:20:52;18.10;99.90
20714;DHT22;10518;50.742;4.226;2023-05-27T06:23:18;18.80;99.90
20714;DHT22;10518;50.742;4.226;2023-05-27T06:25:43;18.50;99.90
20714;DHT22;10518;50.742;4.226;2023-05-27T06:28:09;18.70;99.90
20714;DHT22;10518;50.742;4.226;2023-05-27T06:30:36;18.60;99.90
20714;DHT22;10518;50.742;4.226;2023-05-27T06:33:02;18.10;99.90
20714;DHT22;10518;50.742;4.226;2023-05-27T06:35:28;18.00;99.90
20714;DHT22;10518;50.742;4.226;2023-05-27T06:37:53;17.50;99.90
20714;DHT22;10518;50.742;4.226;2023-05-27T06:40:19;17.30;99.90
20714;DHT22;10518;50.742;4.226;2023-05-27T06:42:45;17.30;99.90
20714;DHT22;10518;50.742;4.226;2023-05-27T06:45:10;17.70;99.90
20714;DHT22;10518;50.742;4.226;2023-05-27T06:47:36;17.90;99.90
20714;DHT22;10518;50.742;4.226;2023-05-27T06:50:02;18.40;99.90
20714;DHT22;10518;50.742;4.226;2023-05-27T06:52:27;18.40;99.90
20714;DHT22;10518;50.742;4.226;2023-05-27T06:54:53;18.70;99.90
20714;DHT22;10518;50.742;4.226;2023-05-27T06:57:19;18.80;99.90
20714;DHT22;10518;50.742;4.226;2023-05-27T06:59:44;18.90;99.90
20714;DHT22;10518;50.742;4.226;2023-05-27T07:02:10;18.40;99.90
20714;DHT22;10518;50.742;4.226;2023-05-27T07:04:35;19.20;99.90
20714;DHT22;10518;50.742;4.226;2023-05-27T07:07:02;19.60;99.90
20714;DHT22;10518;50.742;4.226;2023-05-27T07:09:28;19.80;99.90
20714;DHT22;10518;50.742;4.226;2023-05-27T07:11:54;20.20;99.90
20714;DHT22;10518;50.742;4.226;2023-05-27T07:14:19;20.20;99.90
20714;DHT22;10518;50.742;4.226;2023-05-27T07:16:45;20.10;99.90
20714;DHT22;10518;50.742;4.226;2023-05-27T07:19:11;20.30;99.90
20714;DHT22;10518;50.742;4.226;2023-05-27T07:21:37;20.60;99.90
20714;DHT22;10518;50.742;4.226;2023-05-27T07:24:03;20.50;99.90
20714;DHT22;10518;50.742;4.226;2023-05-27T07:26:32;20.30;99.90
20714;DHT22;10518;50.742;4.226;2023-05-27T07:28:59;20.60;99.90
20714;DHT22;10518;50.742;4.226;2023-05-27T07:31:26;21.40;99.90
20714;DHT22;10518;50.742;4.226;2023-05-27T07:33:52;21.40;99.90
20714;DHT22;10518;50.742;4.226;2023-05-27T07:36:18;20.70;99.90
20714;DHT22;10518;50.742;4.226;2023-05-27T07:38:43;21.60;99.90
20714;DHT22;10518;50.742;4.226;2023-05-27T07:41:09;21.60;99.90
20714;DHT22;10518;50.742;4.226;2023-05-27T07:43:35;20.90;99.90
20714;DHT22;10518;50.742;4.226;2023-05-27T07:46:01;20.50;99.90
20714;DHT22;10518;50.742;4.226;2023-05-27T07:48:28;20.10;99.90
20714;DHT22;10518;50.742;4.226;2023-05-27T07:50:54;19.50;99.90
20714;DHT22;10518;50.742;4.226;2023-05-27T07:53:20;19.90;99.90
20714;DHT22;10518;50.742;4.226;2023-05-27T07:55:46;20.40;99.90
20714;DHT22;10518;50.742;4.226;2023-05-27T07:58:11;19.90;99.90
20714;DHT22;10518;50.742;4.226;2023-05-27T08:00:37;19.40;99.90
20714;DHT22;10518;50.742;4.226;2023-05-27T08:03:02;18.90;99.90
20714;DHT22;10518;50.742;4.226;2023-05-27T08:05:28;19.20;99.90
20714;DHT22;10518;50.742;4.226;2023-05-27T08:07:53;19.80;99.90
20714;DHT22;10518;50.742;4.226;2023-05-27T08:10:20;19.50;99.90
20714;DHT22;10518;50.742;4.226;2023-05-27T08:12:45;19.50;99.90
20714;DHT22;10518;50.742;4.226;2023-05-27T08:15:11;19.60;99.90
20714;DHT22;10518;50.742;4.226;2023-05-27T08:17:37;19.30;99.90
20714;DHT22;10518;50.742;4.226;2023-05-27T08:20:02;19.10;99.90
20714;DHT22;10518;50.742;4.226;2023-05-27T08:22:29;18.20;99.90
20714;DHT22;10518;50.742;4.226;2023-05-27T08:24:55;18.20;99.90
20714;DHT22;10518;50.742;4.226;2023-05-27T08:27:41;18.30;99.90
20714;DHT22;10518;50.742;4.226;2023-05-27T08:30:07;18.00;99.90
20714;DHT22;10518;50.742;4.226;2023-05-27T08:32:33;18.00;99.90
20714;DHT22;10518;50.742;4.226;2023-05-27T08:34:59;18.00;99.90
20714;DHT22;10518;50.742;4.226;2023-05-27T08:37:25;17.80;99.90
20714;DHT22;10518;50.742;4.226;2023-05-27T08:39:51;17.90;99.90
20714;DHT22;10518;50.742;4.226;2023-05-27T08:42:16;18.10;99.90
20714;DHT22;10518;50.742;4.226;2023-05-27T08:44:42;18.00;99.90
20714;DHT22;10518;50.742;4.226;2023-05-27T08:47:07;17.90;99.90
20714;DHT22;10518;50.742;4.226;2023-05-27T08:49:33;18.00;99.90
20714;DHT22;10518;50.742;4.226;2023-05-27T08:52:01;17.90;99.90
20714;DHT22;10518;50.742;4.226;2023-05-27T08:54:28;17.90;99.90
20714;DHT22;10518;50.742;4.226;2023-05-27T08:56:55;17.90;99.90
20714;DHT22;10518;50.742;4.226;2023-05-27T08:59:24;17.70;99.90
20714;DHT22;10518;50.742;4.226;2023-05-27T09:01:50;17.70;99.90
20714;DHT22;10518;50.742;4.226;2023-05-27T09:04:16;17.70;99.90
20714;DHT22;10518;50.742;4.226;2023-05-27T09:06:41;17.70;99.90
20714;DHT22;10518;50.742;4.226;2023-05-27T09:09:07;17.70;99.90
20714;DHT22;10518;50.742;4.226;2023-05-27T09:11:39;17.90;99.90
20714;DHT22;10518;50.742;4.226;2023-05-27T09:14:05;18.10;99.90
20714;DHT22;10518;50.742;4.226;2023-05-27T09:16:31;18.20;99.90
20714;DHT22;10518;50.742;4.226;2023-05-27T09:18:56;18.30;99.90
20714;DHT22;10518;50.742;4.226;2023-05-27T09:21:24;18.40;99.90
20714;DHT22;10518;50.742;4.226;2023-05-27T09:23:55;18.50;99.90
20714;DHT22;10518;50.742;4.226;2023-05-27T09:26:21;18.60;99.90
20714;DHT22;10518;50.742;4.226;2023-05-27T09:28:48;18.80;99.90
20714;DHT22;10518;50.742;4.226;2023-05-27T09:31:14;18.80;99.90
20714;DHT22;10518;50.742;4.226;2023-05-27T09:33:40;18.50;99.90
20714;DHT22;10518;50.742;4.226;2023-05-27T09:36:07;18.50;99.90
20714;DHT22;10518;50.742;4.226;2023-05-27T09:38:35;18.70;99.90
20714;DHT22;10518;50.742;4.226;2023-05-27T09:41:02;18.70;99.90
20714;DHT22;10518;50.742;4.226;2023-05-27T09:43:28;18.50;99.90
20714;DHT22;10518;50.742;4.226;2023-05-27T09:46:01;18.60;99.90
20714;DHT22;10518;50.742;4.226;2023-05-27T09:48:31;18.80;99.90
20714;DHT22;10518;50.742;4.226;2023-05-27T09:50:58;19.00;99.90
20714;DHT22;10518;50.742;4.226;2023-05-27T09:53:28;19.20;99.90
20714;DHT22;10518;50.742;4.226;2023-05-27T09:55:54;19.10;99.90
20714;DHT22;10518;50.742;4.226;2023-05-27T09:58:22;19.00;99.90
20714;DHT22;10518;50.742;4.226;2023-05-27T10:00:48;18.80;99.90
20714;DHT22;10518;50.742;4.226;2023-05-27T10:03:16;18.90;99.90
20714;DHT22;10518;50.742;4.226;2023-05-27T10:05:44;19.20;99.90
20714;DHT22;10518;50.742;4.226;2023-05-27T10:08:11;19.50;99.90
20714;DHT22;10518;50.742;4.226;2023-05-27T10:10:38;19.60;99.90
20714;DHT22;10518;50.742;4.226;2023-05-27T10:13:04;19.50;99.90
20714;DHT22;10518;50.742;4.226;2023-05-27T10:15:31;19.50;99.90
20714;DHT22;10518;50.742;4.226;2023-05-27T10:17:59;19.60;99.90
20714;DHT22;10518;50.742;4.226;2023-05-27T10:20:34;19.30;99.90
20714;DHT22;10518;50.742;4.226;2023-05-27T10:25:39;19.30;99.90
20714;DHT22;10518;50.742;4.226;2023-05-27T10:28:05;19.40;99.90
20714;DHT22;10518;50.742;4.226;2023-05-27T10:30:45;19.60;99.90
20714;DHT22;10518;50.742;4.226;2023-05-27T10:33:12;19.50;99.90
20714;DHT22;10518;50.742;4.226;2023-05-27T10:35:42;19.50;99.90
20714;DHT22;10518;50.742;4.226;2023-05-27T10:38:17;19.70;99.90
20714;DHT22;10518;50.742;4.226;2023-05-27T10:40:46;20.10;99.90
20714;DHT22;10518;50.742;4.226;2023-05-27T10:43:17;20.10;99.90
20714;DHT22;10518;50.742;4.226;2023-05-27T10:45:42;20.00;99.90
20714;DHT22;10518;50.742;4.226;2023-05-27T10:48:15;20.20;99.90
20714;DHT22;10518;50.742;4.226;2023-05-27T10:50:49;20.30;99.90
20714;DHT22;10518;50.742;4.226;2023-05-27T10:53:19;20.30;99.90
20714;DHT22;10518;50.742;4.226;2023-05-27T10:55:49;20.20;99.90
20714;DHT22;10518;50.742;4.226;2023-05-27T10:58:19;20.30;99.90
20714;DHT22;10518;50.742;4.226;2023-05-27T11:00:48;20.20;99.90
20714;DHT22;10518;50.742;4.226;2023-05-27T11:03:21;20.30;99.90
20714;DHT22;10518;50.742;4.226;2023-05-27T11:06:07;20.40;99.90
20714;DHT22;10518;50.742;4.226;2023-05-27T11:08:33;20.60;99.90
20714;DHT22;10518;50.742;4.226;2023-05-27T11:11:07;20.70;99.90
20714;DHT22;10518;50.742;4.226;2023-05-27T11:13:34;20.70;99.90
20714;DHT22;10518;50.742;4.226;2023-05-27T11:16:02;20.80;99.90
20714;DHT22;10518;50.742;4.226;2023-05-27T11:18:45;21.00;99.90
20714;DHT22;10518;50.742;4.226;2023-05-27T11:21:15;21.10;99.90
20714;DHT22;10518;50.742;4.226;2023-05-27T11:26:20;21.00;99.90
20714;DHT22;10518;50.742;4.226;2023-05-27T11:28:51;21.00;99.90
20714;DHT22;10518;50.742;4.226;2023-05-27T11:31:17;21.10;99.90
20714;DHT22;10518;50.742;4.226;2023-05-27T11:33:46;21.30;99.90
20714;DHT22;10518;50.742;4.226;2023-05-27T11:36:15;21.10;99.90
20714;DHT22;10518;50.742;4.226;2023-05-27T11:41:12;20.80;99.90
20714;DHT22;10518;50.742;4.226;2023-05-27T11:43:47;21.00;99.90
20714;DHT22;10518;50.742;4.226;2023-05-27T11:46:13;21.10;99.90
20714;DHT22;10518;50.742;4.226;2023-05-27T11:48:38;21.20;99.90
20714;DHT22;10518;50.742;4.226;2023-05-27T11:51:04;21.30;99.90
20714;DHT22;10518;50.742;4.226;2023-05-27T11:53:30;21.20;99.90
20714;DHT22;10518;50.742;4.226;2023-05-27T11:55:56;21.30;99.90
20714;DHT22;10518;50.742;4.226;2023-05-27T11:58:21;21.30;99.90
20714;DHT22;10518;50.742;4.226;2023-05-27T12:00:47;21.60;99.90
20714;DHT22;10518;50.742;4.226;2023-05-27T12:03:13;21.70;99.90
20714;DHT22;10518;50.742;4.226;2023-05-27T12:05:38;21.50;99.90
20714;DHT22;10518;50.742;4.226;2023-05-27T12:08:04;21.50;99.90
20714;DHT22;10518;50.742;4.226;2023-05-27T12:10:30;21.60;99.90
20714;DHT22;10518;50.742;4.226;2023-05-27T12:13:03;21.60;99.90
20714;DHT22;10518;50.742;4.226;2023-05-27T12:15:28;21.80;99.90
20714;DHT22;10518;50.742;4.226;2023-05-27T12:17:54;21.80;99.90
20714;DHT22;10518;50.742;4.226;2023-05-27T12:20:19;21.70;99.90
20714;DHT22;10518;50.742;4.226;2023-05-27T12:22:45;21.70;99.90
20714;DHT22;10518;50.742;4.226;2023-05-27T12:25:11;21.60;99.90
20714;DHT22;10518;50.742;4.226;2023-05-27T12:27:36;21.60;99.90
20714;DHT22;10518;50.742;4.226;2023-05-27T12:30:02;21.80;99.90
20714;DHT22;10518;50.742;4.226;2023-05-27T12:32:28;21.90;99.90
20714;DHT22;10518;50.742;4.226;2023-05-27T12:34:53;22.10;99.90
20714;DHT22;10518;50.742;4.226;2023-05-27T12:37:19;22.00;99.90
20714;DHT22;10518;50.742;4.226;2023-05-27T12:39:44;22.00;99.90
20714;DHT22;10518;50.742;4.226;2023-05-27T12:42:10;22.20;99.90
20714;DHT22;10518;50.742;4.226;2023-05-27T12:44:36;22.40;99.90
20714;DHT22;10518;50.742;4.226;2023-05-27T12:47:01;22.40;99.90
20714;DHT22;10518;50.742;4.226;2023-05-27T12:49:27;22.40;99.90
20714;DHT22;10518;50.742;4.226;2023-05-27T12:51:53;22.30;99.90
20714;DHT22;10518;50.742;4.226;2023-05-27T12:54:19;22.20;99.90
20714;DHT22;10518;50.742;4.226;2023-05-27T12:56:45;22.10;99.90
20714;DHT22;10518;50.742;4.226;2023-05-27T12:59:10;22.10;99.90
20714;DHT22;10518;50.742;4.226;2023-05-27T13:01:36;21.90;99.90
20714;DHT22;10518;50.742;4.226;2023-05-27T13:04:01;22.00;99.90
20714;DHT22;10518;50.742;4.226;2023-05-27T13:06:27;22.10;99.90
20714;DHT22;10518;50.742;4.226;2023-05-27T13:08:53;22.30;99.90
20714;DHT22;10518;50.742;4.226;2023-05-27T13:11:18;22.30;99.90
20714;DHT22;10518;50.742;4.226;2023-05-27T13:13:44;22.30;99.90
20714;DHT22;10518;50.742;4.226;2023-05-27T13:16:10;22.30;99.90
20714;DHT22;10518;50.742;4.226;2023-05-27T13:18:36;22.20;99.90
20714;DHT22;10518;50.742;4.226;2023-05-27T13:21:02;22.10;99.90
20714;DHT22;10518;50.742;4.226;2023-05-27T13:23:28;22.20;99.90
20714;DHT22;10518;50.742;4.226;2023-05-27T13:25:54;22.60;99.90
20714;DHT22;10518;50.742;4.226;2023-05-27T13:28:20;22.70;99.90
20714;DHT22;10518;50.742;4.226;2023-05-27T13:30:45;22.50;99.90
20714;DHT22;10518;50.742;4.226;2023-05-27T13:33:11;22.60;99.90
20714;DHT22;10518;50.742;4.226;2023-05-27T13:35:37;22.40;99.90
20714;DHT22;10518;50.742;4.226;2023-05-27T13:38:02;22.20;99.90
20714;DHT22;10518;50.742;4.226;2023-05-27T13:40:29;22.30;99.90
20714;DHT22;10518;50.742;4.226;2023-05-27T13:42:54;22.40;99.90
20714;DHT22;10518;50.742;4.226;2023-05-27T13:45:20;22.60;99.90
20714;DHT22;10518;50.742;4.226;2023-05-27T13:47:46;22.60;99.90
20714;DHT22;10518;50.742;4.226;2023-05-27T13:50:11;22.50;99.90
20714;DHT22;10518;50.742;4.226;2023-05-27T13:52:37;22.40;99.90
20714;DHT22;10518;50.742;4.226;2023-05-27T13:55:03;22.30;99.90
20714;DHT22;10518;50.742;4.226;2023-05-27T13:57:29;22.50;99.90
20714;DHT22;10518;50.742;4.226;2023-05-27T13:59:55;22.60;99.90
20714;DHT22;10518;50.742;4.226;2023-05-27T14:02:20;22.60;99.90
20714;DHT22;10518;50.742;4.226;2023-05-27T14:04:46;22.60;99.90
20714;DHT22;10518;50.742;4.226;2023-05-27T14:07:12;22.70;99.90
20714;DHT22;10518;50.742;4.226;2023-05-27T14:09:37;22.60;99.90
20714;DHT22;10518;50.742;4.226;2023-05-27T14:12:03;22.70;99.90
20714;DHT22;10518;50.742;4.226;2023-05-27T14:14:29;22.70;99.90
20714;DHT22;10518;50.742;4.226;2023-05-27T14:16:54;22.70;99.90
20714;DHT22;10518;50.742;4.226;2023-05-27T14:19:21;22.80;99.90
20714;DHT22;10518;50.742;4.226;2023-05-27T14:21:47;22.50;99.90
20714;DHT22;10518;50.742;4.226;2023-05-27T14:24:12;22.50;99.90
20714;DHT22;10518;50.742;4.226;2023-05-27T14:26:38;22.60;99.90
20714;DHT22;10518;50.742;4.226;2023-05-27T14:29:03;22.60;99.90
20714;DHT22;10518;50.742;4.226;2023-05-27T14:31:29;22.80;99.90
20714;DHT22;10518;50.742;4.226;2023-05-27T14:33:54;23.10;99.90
20714;DHT22;10518;50.742;4.226;2023-05-27T14:36:20;23.10;99.90
20714;DHT22;10518;50.742;4.226;2023-05-27T14:38:46;23.00;99.90
20714;DHT22;10518;50.742;4.226;2023-05-27T14:41:11;23.00;99.90
20714;DHT22;10518;50.742;4.226;2023-05-27T14:43:37;22.90;99.90
20714;DHT22;10518;50.742;4.226;2023-05-27T14:46:02;23.10;99.90
20714;DHT22;10518;50.742;4.226;2023-05-27T14:48:28;23.10;99.90
20714;DHT22;10518;50.742;4.226;2023-05-27T14:50:54;23.10;99.90
20714;DHT22;10518;50.742;4.226;2023-05-27T14:53:19;23.00;99.90
20714;DHT22;10518;50.742;4.226;2023-05-27T14:55:45;22.90;99.90
20714;DHT22;10518;50.742;4.226;2023-05-27T14:58:11;23.00;99.90
20714;DHT22;10518;50.742;4.226;2023-05-27T15:00:36;23.00;99.90
20714;DHT22;10518;50.742;4.226;2023-05-27T15:03:02;23.10;99.90
20714;DHT22;10518;50.742;4.226;2023-05-27T15:05:28;23.00;99.90
20714;DHT22;10518;50.742;4.226;2023-05-27T15:07:53;22.90;99.90
20714;DHT22;10518;50.742;4.226;2023-05-27T15:10:19;22.80;99.90
20714;DHT22;10518;50.742;4.226;2023-05-27T15:12:46;22.90;99.90
20714;DHT22;10518;50.742;4.226;2023-05-27T15:15:17;22.90;99.90
20714;DHT22;10518;50.742;4.226;2023-05-27T15:17:43;22.80;99.90
20714;DHT22;10518;50.742;4.226;2023-05-27T15:20:14;22.90;99.90
20714;DHT22;10518;50.742;4.226;2023-05-27T15:22:40;23.00;99.90
20714;DHT22;10518;50.742;4.226;2023-05-27T15:25:07;23.10;99.90
20714;DHT22;10518;50.742;4.226;2023-05-27T15:27:32;23.10;99.90
20714;DHT22;10518;50.742;4.226;2023-05-27T15:29:58;23.10;99.90
20714;DHT22;10518;50.742;4.226;2023-05-27T15:32:24;23.20;99.90
20714;DHT22;10518;50.742;4.226;2023-05-27T15:34:49;23.10;99.90
20714;DHT22;10518;50.742;4.226;2023-05-27T15:37:17;23.10;99.90
20714;DHT22;10518;50.742;4.226;2023-05-27T15:39:42;23.10;98.80